sensor_id;sensor_type;location;lat;lon;timestamp;pressure;altitude;pressure_sealevel;temperature;humidity
40998;BME280;26740;45.944;12.480;2023-02-13T00:01:20;103385.78;;;1.31;100.00
40998;BME280;26740;45.944;12.480;2023-02-13T00:03:46;103384.63;;;1.33;100.00
40998;BME280;26740;45.944;12.480;2023-02-13T00:06:11;103382.44;;;1.16;100.00
40998;BME280;26740;45.944;12.480;2023-02-13T00:08:37;103385.06;;;0.95;100.00
40998;BME280;26740;45.944;12.480;2023-02-13T00:11:02;103381.63;;;0.82;100.00
40998;BME280;26740;45.944;12.480;2023-02-13T00:13:28;103373.91;;;0.75;100.00
40998;BME280;26740;45.944;12.480;2023-02-13T00:15:55;103375.44;;;0.80;100.00
40998;BME280;26740;45.944;12.480;2023-02-13T00:18:21;103376.41;;;0.79;100.00
40998;BME280;26740;45.944;12.480;2023-02-13T00:20:56;103377.91;;;0.71;100.00
40998;BME280;26740;45.944;12.480;2023-02-13T00:23:22;103375.53;;;0.67;100.00
40998;BME280;26740;45.944;12.480;2023-02-13T00:25:48;103374.31;;;0.71;100.00
40998;BME280;26740;45.944;12.480;2023-02-13T00:28:13;103380.50;;;0.84;100.00
40998;BME280;26740;45.944;12.480;2023-02-13T00:30:39;103381.59;;;0.93;100.00
40998;BME280;26740;45.944;12.480;2023-02-13T00:33:05;103384.34;;;0.93;100.00
40998;BME280;26740;45.944;12.480;2023-02-13T00:35:30;103387.09;;;1.04;100.00
40998;BME280;26740;45.944;12.480;2023-02-13T00:37:56;103384.06;;;1.07;100.00
40998;BME280;26740;45.944;12.480;2023-02-13T00:40:22;103390.28;;;1.09;100.00
40998;BME280;26740;45.944;12.480;2023-02-13T00:42:47;103386.06;;;1.17;100.00
40998;BME280;26740;45.944;12.480;2023-02-13T00:45:13;103388.94;;;1.15;100.00
40998;BME280;26740;45.944;12.480;2023-02-13T00:47:39;103389.75;;;1.27;100.00
40998;BME280;26740;45.944;12.480;2023-02-13T00:50:05;103394.72;;;1.22;100.00
40998;BME280;26740;45.944;12.480;2023-02-13T00:52:30;103391.78;;;1.13;100.00
40998;BME280;26740;45.944;12.480;2023-02-13T00:54:56;103399.59;;;1.18;100.00
40998;BME280;26740;45.944;12.480;2023-02-13T00:57:21;103393.94;;;1.42;100.00
40998;BME280;26740;45.944;12.480;2023-02-13T00:59:47;103395.41;;;1.46;100.00
40998;BME280;26740;45.944;12.480;2023-02-13T01:02:13;103389.31;;;1.43;100.00
40998;BME280;26740;45.944;12.480;2023-02-13T01:04:38;103395.38;;;1.58;100.00
40998;BME280;26740;45.944;12.480;2023-02-13T01:07:04;103394.41;;;1.80;100.00
40998;BME280;26740;45.944;12.480;2023-02-13T01:09:29;103394.38;;;1.59;100.00
40998;BME280;26740;45.944;12.480;2023-02-13T01:11:55;103396.13;;;1.60;100.00
40998;BME280;26740;45.944;12.480;2023-02-13T01:14:21;103390.53;;;1.50;100.00
40998;BME280;26740;45.944;12.480;2023-02-13T01:16:46;103387.47;;;1.43;100.00
40998;BME280;26740;45.944;12.480;2023-02-13T01:21:47;103381.53;;;1.38;100.00
40998;BME280;26740;45.944;12.480;2023-02-13T01:24:13;103385.50;;;1.34;100.00
40998;BME280;26740;45.944;12.480;2023-02-13T01:26:38;103381.56;;;1.16;100.00
40998;BME280;26740;45.944;12.480;2023-02-13T01:29:04;103381.25;;;0.98;100.00
40998;BME280;26740;45.944;12.480;2023-02-13T01:31:30;103382.38;;;0.84;100.00
40998;BME280;26740;45.944;12.480;2023-02-13T01:33:56;103381.25;;;0.75;100.00
40998;BME280;26740;45.944;12.480;2023-02-13T01:36:23;103380.38;;;0.63;100.00
40998;BME280;26740;45.944;12.480;2023-02-13T01:38:52;103379.53;;;0.63;100.00
40998;BME280;26740;45.944;12.480;2023-02-13T01:41:18;103378.53;;;0.64;100.00
40998;BME280;26740;45.944;12.480;2023-02-13T01:46:11;103378.66;;;0.62;100.00
40998;BME280;26740;45.944;12.480;2023-02-13T01:48:37;103381.38;;;0.73;100.00
40998;BME280;26740;45.944;12.480;2023-02-13T01:51:06;103381.38;;;0.73;100.00
40998;BME280;26740;45.944;12.480;2023-02-13T01:53:43;103379.75;;;0.82;100.00
40998;BME280;26740;45.944;12.480;2023-02-13T01:56:17;103378.78;;;0.83;100.00
40998;BME280;26740;45.944;12.480;2023-02-13T01:58:48;103371.16;;;0.98;100.00
40998;BME280;26740;45.944;12.480;2023-02-13T02:01:15;103374.34;;;1.14;100.00
40998;BME280;26740;45.944;12.480;2023-02-13T02:03:48;103377.84;;;1.05;100.00
40998;BME280;26740;45.944;12.480;2023-02-13T02:06:27;103377.38;;;1.00;100.00
40998;BME280;26740;45.944;12.480;2023-02-13T02:09:13;103370.41;;;0.96;100.00
40998;BME280;26740;45.944;12.480;2023-02-13T02:14:25;103372.16;;;0.86;100.00
40998;BME280;26740;45.944;12.480;2023-02-13T02:16:51;103368.97;;;0.69;100.00
40998;BME280;26740;45.944;12.480;2023-02-13T02:22:04;103358.84;;;0.81;100.00
40998;BME280;26740;45.944;12.480;2023-02-13T02:27:19;103363.72;;;0.89;100.00
40998;BME280;26740;45.944;12.480;2023-02-13T02:30:21;103360.72;;;1.03;100.00
40998;BME280;26740;45.944;12.480;2023-02-13T02:45:06;103351.31;;;0.51;100.00
40998;BME280;26740;45.944;12.480;2023-02-13T02:50:25;103351.56;;;0.25;100.00
40998;BME280;26740;45.944;12.480;2023-02-13T02:55:43;103351.00;;;0.09;100.00
40998;BME280;26740;45.944;12.480;2023-02-13T02:58:23;103348.03;;;0.12;100.00
40998;BME280;26740;45.944;12.480;2023-02-13T03:01:14;103351.41;;;0.04;100.00
40998;BME280;26740;45.944;12.480;2023-02-13T03:03:59;103343.56;;;-0.01;100.00
40998;BME280;26740;45.944;12.480;2023-02-13T03:09:26;103346.16;;;-0.10;100.00
40998;BME280;26740;45.944;12.480;2023-02-13T03:12:16;103347.00;;;-0.10;100.00
40998;BME280;26740;45.944;12.480;2023-02-13T03:15:03;103346.63;;;-0.16;100.00
40998;BME280;26740;45.944;12.480;2023-02-13T03:17:28;103349.84;;;-0.23;100.00
40998;BME280;26740;45.944;12.480;2023-02-13T03:20:41;103354.41;;;-0.59;100.00
40998;BME280;26740;45.944;12.480;2023-02-13T03:34:31;103340.25;;;-0.28;100.00
40998;BME280;26740;45.944;12.480;2023-02-13T03:37:26;103342.50;;;-0.33;100.00
40998;BME280;26740;45.944;12.480;2023-02-13T03:40:17;103343.97;;;-0.41;100.00
40998;BME280;26740;45.944;12.480;2023-02-13T03:42:54;103336.22;;;-0.47;100.00
40998;BME280;26740;45.944;12.480;2023-02-13T03:45:32;103343.06;;;-0.41;100.00
40998;BME280;26740;45.944;12.480;2023-02-13T03:48:26;103344.59;;;-0.37;100.00
40998;BME280;26740;45.944;12.480;2023-02-13T03:51:16;103335.00;;;-0.43;100.00
40998;BME280;26740;45.944;12.480;2023-02-13T03:53:45;103339.19;;;-0.50;100.00
40998;BME280;26740;45.944;12.480;2023-02-13T03:56:13;103338.94;;;-0.58;100.00
40998;BME280;26740;45.944;12.480;2023-02-13T03:59:01;103342.84;;;-0.62;100.00
40998;BME280;26740;45.944;12.480;2023-02-13T04:01:50;103342.41;;;-0.56;100.00
40998;BME280;26740;45.944;12.480;2023-02-13T04:07:11;103339.22;;;-0.74;100.00
40998;BME280;26740;45.944;12.480;2023-02-13T04:09:55;103344.25;;;-0.81;100.00
40998;BME280;26740;45.944;12.480;2023-02-13T04:13:08;103346.03;;;-0.92;100.00
40998;BME280;26740;45.944;12.480;2023-02-13T04:15:41;103345.94;;;-0.91;100.00
40998;BME280;26740;45.944;12.480;2023-02-13T04:18:20;103350.56;;;-1.04;100.00
40998;BME280;26740;45.944;12.480;2023-02-13T04:20:47;103350.59;;;-1.17;100.00
40998;BME280;26740;45.944;12.480;2023-02-13T04:23:13;103355.53;;;-1.22;100.00
40998;BME280;26740;45.944;12.480;2023-02-13T04:25:41;103351.34;;;-1.15;100.00
40998;BME280;26740;45.944;12.480;2023-02-13T04:28:08;103352.25;;;-1.15;100.00
40998;BME280;26740;45.944;12.480;2023-02-13T04:30:34;103350.97;;;-1.22;100.00
40998;BME280;26740;45.944;12.480;2023-02-13T04:32:59;103347.97;;;-1.19;100.00
40998;BME280;26740;45.944;12.480;2023-02-13T04:35:25;103360.53;;;-1.16;100.00
40998;BME280;26740;45.944;12.480;2023-02-13T04:37:50;103354.81;;;-1.00;100.00
40998;BME280;26740;45.944;12.480;2023-02-13T04:40:16;103353.84;;;-0.75;100.00
40998;BME280;26740;45.944;12.480;2023-02-13T04:42:42;103360.56;;;-0.68;100.00
40998;BME280;26740;45.944;12.480;2023-02-13T04:45:08;103366.66;;;-0.64;100.00
40998;BME280;26740;45.944;12.480;2023-02-13T04:47:33;103361.91;;;-0.73;100.00
40998;BME280;26740;45.944;12.480;2023-02-13T04:49:59;103350.41;;;-0.90;100.00
40998;BME280;26740;45.944;12.480;2023-02-13T04:52:25;103359.47;;;-0.89;100.00
40998;BME280;26740;45.944;12.480;2023-02-13T04:54:50;103358.47;;;-0.88;100.00
40998;BME280;26740;45.944;12.480;2023-02-13T04:57:16;103351.91;;;-0.86;100.00
40998;BME280;26740;45.944;12.480;2023-02-13T04:59:41;103349.31;;;-0.87;100.00
40998;BME280;26740;45.944;12.480;2023-02-13T05:02:07;103354.81;;;-1.00;100.00
40998;BME280;26740;45.944;12.480;2023-02-13T05:04:32;103355.91;;;-1.03;100.00
40998;BME280;26740;45.944;12.480;2023-02-13T05:06:58;103353.75;;;-1.10;100.00
40998;BME280;26740;45.944;12.480;2023-02-13T05:09:23;103346.00;;;-1.17;100.00
40998;BME280;26740;45.944;12.480;2023-02-13T05:11:52;103347.56;;;-1.25;100.00
40998;BME280;26740;45.944;12.480;2023-02-13T05:14:18;103347.97;;;-1.19;100.00
40998;BME280;26740;45.944;12.480;2023-02-13T05:16:44;103341.03;;;-1.23;100.00
40998;BME280;26740;45.944;12.480;2023-02-13T05:19:09;103349.84;;;-1.19;100.00
40998;BME280;26740;45.944;12.480;2023-02-13T05:21:35;103352.38;;;-1.29;100.00
40998;BME280;26740;45.944;12.480;2023-02-13T05:24:19;103346.38;;;-1.21;100.00
40998;BME280;26740;45.944;12.480;2023-02-13T05:26:44;103348.88;;;-1.31;100.00
40998;BME280;26740;45.944;12.480;2023-02-13T05:29:10;103347.91;;;-1.30;100.00
40998;BME280;26740;45.944;12.480;2023-02-13T05:31:50;103349.19;;;-1.23;100.00
40998;BME280;26740;45.944;12.480;2023-02-13T05:34:16;103342.41;;;-1.17;100.00
40998;BME280;26740;45.944;12.480;2023-02-13T05:36:41;103341.03;;;-1.23;100.00
40998;BME280;26740;45.944;12.480;2023-02-13T05:39:07;103344.63;;;-1.22;100.00
40998;BME280;26740;45.944;12.480;2023-02-13T05:41:33;103348.56;;;-1.26;100.00
40998;BME280;26740;45.944;12.480;2023-02-13T05:43:58;103349.31;;;-1.24;100.00
40998;BME280;26740;45.944;12.480;2023-02-13T05:46:24;103347.88;;;-1.17;100.00
40998;BME280;26740;45.944;12.480;2023-02-13T05:48:51;103351.28;;;-1.26;100.00
40998;BME280;26740;45.944;12.480;2023-02-13T05:51:17;103350.53;;;-1.28;100.00
40998;BME280;26740;45.944;12.480;2023-02-13T05:53:43;103353.69;;;-1.35;100.00
40998;BME280;26740;45.944;12.480;2023-02-13T05:56:08;103358.59;;;-1.40;100.00
40998;BME280;26740;45.944;12.480;2023-02-13T05:58:34;103362.34;;;-1.41;100.00
40998;BME280;26740;45.944;12.480;2023-02-13T06:01:00;103365.25;;;-1.31;100.00
40998;BME280;26740;45.944;12.480;2023-02-13T06:03:29;103360.94;;;-1.46;100.00
40998;BME280;26740;45.944;12.480;2023-02-13T06:05:55;103359.28;;;-1.49;100.00
40998;BME280;26740;45.944;12.480;2023-02-13T06:08:21;103371.94;;;-1.61;100.00
40998;BME280;26740;45.944;12.480;2023-02-13T06:10:48;103372.56;;;-1.57;100.00
40998;BME280;26740;45.944;12.480;2023-02-13T06:13:14;103370.19;;;-1.62;100.00
40998;BME280;26740;45.944;12.480;2023-02-13T06:15:40;103370.97;;;-1.60;100.00
40998;BME280;26740;45.944;12.480;2023-02-13T06:18:06;103373.13;;;-1.52;100.00
40998;BME280;26740;45.944;12.480;2023-02-13T06:20:32;103386.84;;;-1.41;100.00
40998;BME280;26740;45.944;12.480;2023-02-13T06:22:57;103389.38;;;-1.38;100.00
40998;BME280;26740;45.944;12.480;2023-02-13T06:25:23;103388.59;;;-1.40;100.00
40998;BME280;26740;45.944;12.480;2023-02-13T06:27:49;103387.94;;;-1.30;100.00
40998;BME280;26740;45.944;12.480;2023-02-13T06:30:15;103389.94;;;-1.08;100.00
40998;BME280;26740;45.944;12.480;2023-02-13T06:32:41;103394.00;;;-0.77;100.00
40998;BME280;26740;45.944;12.480;2023-02-13T06:35:07;103404.34;;;-0.45;100.00
40998;BME280;26740;45.944;12.480;2023-02-13T06:37:33;103405.00;;;-0.06;100.00
40998;BME280;26740;45.944;12.480;2023-02-13T06:39:59;103397.72;;;0.17;100.00
40998;BME280;26740;45.944;12.480;2023-02-13T06:42:24;103398.00;;;0.36;100.00
40998;BME280;26740;45.944;12.480;2023-02-13T06:44:50;103394.56;;;0.68;100.00
40998;BME280;26740;45.944;12.480;2023-02-13T06:47:15;103392.94;;;0.88;100.00
40998;BME280;26740;45.944;12.480;2023-02-13T06:49:41;103392.47;;;1.38;100.00
40998;BME280;26740;45.944;12.480;2023-02-13T06:52:06;103397.13;;;1.91;100.00
40998;BME280;26740;45.944;12.480;2023-02-13T06:54:32;103386.28;;;2.32;100.00
40998;BME280;26740;45.944;12.480;2023-02-13T06:56:58;103385.66;;;2.49;100.00
40998;BME280;26740;45.944;12.480;2023-02-13T06:59:23;103391.03;;;2.30;100.00
40998;BME280;26740;45.944;12.480;2023-02-13T07:01:49;103387.78;;;2.76;100.00
40998;BME280;26740;45.944;12.480;2023-02-13T07:04:14;103392.69;;;3.13;100.00
40998;BME280;26740;45.944;12.480;2023-02-13T07:06:40;103397.38;;;3.42;100.00
40998;BME280;26740;45.944;12.480;2023-02-13T07:09:05;103398.28;;;3.62;100.00
40998;BME280;26740;45.944;12.480;2023-02-13T07:14:52;103400.03;;;5.24;100.00
40998;BME280;26740;45.944;12.480;2023-02-13T07:17:18;103405.03;;;5.75;100.00
40998;BME280;26740;45.944;12.480;2023-02-13T07:19:43;103394.81;;;6.29;100.00
40998;BME280;26740;45.944;12.480;2023-02-13T07:22:09;103387.06;;;6.85;100.00
40998;BME280;26740;45.944;12.480;2023-02-13T07:24:34;103385.00;;;6.87;100.00
40998;BME280;26740;45.944;12.480;2023-02-13T07:27:04;103397.75;;;7.22;100.00
40998;BME280;26740;45.944;12.480;2023-02-13T07:29:30;103397.84;;;8.54;100.00
40998;BME280;26740;45.944;12.480;2023-02-13T07:31:55;103396.56;;;8.89;100.00
40998;BME280;26740;45.944;12.480;2023-02-13T07:34:21;103397.06;;;9.87;94.98
40998;BME280;26740;45.944;12.480;2023-02-13T07:36:46;103394.13;;;10.03;93.47
40998;BME280;26740;45.944;12.480;2023-02-13T07:39:12;103391.97;;;10.37;91.65
40998;BME280;26740;45.944;12.480;2023-02-13T07:41:37;103395.31;;;9.00;100.00
40998;BME280;26740;45.944;12.480;2023-02-13T07:44:03;103411.72;;;9.96;94.75
40998;BME280;26740;45.944;12.480;2023-02-13T07:46:29;103403.91;;;9.45;95.42
40998;BME280;26740;45.944;12.480;2023-02-13T07:48:54;103395.25;;;9.71;94.83
40998;BME280;26740;45.944;12.480;2023-02-13T07:51:20;103394.31;;;9.79;90.17
40998;BME280;26740;45.944;12.480;2023-02-13T07:53:52;103403.59;;;9.94;88.03
40998;BME280;26740;45.944;12.480;2023-02-13T07:56:18;103405.00;;;10.51;88.75
40998;BME280;26740;45.944;12.480;2023-02-13T07:58:43;103413.47;;;11.90;76.93
40998;BME280;26740;45.944;12.480;2023-02-13T08:01:12;103407.19;;;12.25;69.77
40998;BME280;26740;45.944;12.480;2023-02-13T08:03:39;103402.31;;;12.12;69.41
40998;BME280;26740;45.944;12.480;2023-02-13T08:06:05;103401.66;;;12.10;71.20
40998;BME280;26740;45.944;12.480;2023-02-13T08:08:31;103400.84;;;12.66;69.16
40998;BME280;26740;45.944;12.480;2023-02-13T08:11:01;103406.09;;;12.82;66.08
40998;BME280;26740;45.944;12.480;2023-02-13T08:13:46;103400.66;;;13.09;70.27
40998;BME280;26740;45.944;12.480;2023-02-13T08:16:11;103396.84;;;13.85;63.99
40998;BME280;26740;45.944;12.480;2023-02-13T08:18:37;103396.69;;;14.07;61.84
40998;BME280;26740;45.944;12.480;2023-02-13T08:21:03;103395.84;;;14.59;62.57
40998;BME280;26740;45.944;12.480;2023-02-13T08:23:29;103407.63;;;16.17;55.91
40998;BME280;26740;45.944;12.480;2023-02-13T08:25:58;103406.75;;;16.67;49.78
40998;BME280;26740;45.944;12.480;2023-02-13T08:28:24;103399.41;;;17.10;50.74
40998;BME280;26740;45.944;12.480;2023-02-13T08:30:50;103401.03;;;17.66;50.03
40998;BME280;26740;45.944;12.480;2023-02-13T08:33:15;103397.31;;;17.84;49.68
40998;BME280;26740;45.944;12.480;2023-02-13T08:35:41;103400.56;;;18.89;45.59
40998;BME280;26740;45.944;12.480;2023-02-13T08:38:08;103407.88;;;18.66;43.56
40998;BME280;26740;45.944;12.480;2023-02-13T08:40:34;103405.06;;;18.66;43.28
40998;BME280;26740;45.944;12.480;2023-02-13T08:43:01;103401.63;;;18.29;45.40
40998;BME280;26740;45.944;12.480;2023-02-13T08:45:28;103400.03;;;18.80;43.14
40998;BME280;26740;45.944;12.480;2023-02-13T08:47:57;103397.28;;;19.32;41.26
40998;BME280;26740;45.944;12.480;2023-02-13T08:50:24;103400.72;;;19.35;42.45
40998;BME280;26740;45.944;12.480;2023-02-13T08:52:50;103397.78;;;19.58;41.32
40998;BME280;26740;45.944;12.480;2023-02-13T08:55:16;103403.31;;;20.44;41.02
40998;BME280;26740;45.944;12.480;2023-02-13T08:57:41;103404.94;;;21.13;38.36
40998;BME280;26740;45.944;12.480;2023-02-13T09:02:48;103405.75;;;21.80;33.60
40998;BME280;26740;45.944;12.480;2023-02-13T09:05:14;103397.13;;;20.98;35.27
40998;BME280;26740;45.944;12.480;2023-02-13T09:07:39;103398.13;;;20.19;35.37
40998;BME280;26740;45.944;12.480;2023-02-13T09:10:05;103404.78;;;20.30;35.36
40998;BME280;26740;45.944;12.480;2023-02-13T09:12:31;103407.53;;;20.42;36.22
40998;BME280;26740;45.944;12.480;2023-02-13T09:14:57;103399.78;;;18.93;36.12
40998;BME280;26740;45.944;12.480;2023-02-13T09:17:22;103395.28;;;21.09;34.83
40998;BME280;26740;45.944;12.480;2023-02-13T09:19:48;103390.47;;;19.86;35.44
40998;BME280;26740;45.944;12.480;2023-02-13T09:22:13;103400.81;;;17.98;37.97
40998;BME280;26740;45.944;12.480;2023-02-13T09:24:41;103393.78;;;17.28;41.17
40998;BME280;26740;45.944;12.480;2023-02-13T09:27:07;103400.63;;;17.81;38.12
40998;BME280;26740;45.944;12.480;2023-02-13T09:29:33;103392.31;;;17.07;40.26
40998;BME280;26740;45.944;12.480;2023-02-13T09:31:59;103389.69;;;16.68;43.15
40998;BME280;26740;45.944;12.480;2023-02-13T09:34:25;103394.41;;;15.99;43.90
40998;BME280;26740;45.944;12.480;2023-02-13T09:36:52;103397.22;;;16.93;42.72
40998;BME280;26740;45.944;12.480;2023-02-13T09:39:19;103400.78;;;17.86;39.21
40998;BME280;26740;45.944;12.480;2023-02-13T09:41:47;103395.38;;;17.85;39.90
40998;BME280;26740;45.944;12.480;2023-02-13T09:47:16;103390.41;;;17.87;40.73
40998;BME280;26740;45.944;12.480;2023-02-13T09:49:49;103384.41;;;17.65;40.32
40998;BME280;26740;45.944;12.480;2023-02-13T09:52:17;103391.19;;;18.06;39.36
40998;BME280;26740;45.944;12.480;2023-02-13T09:54:43;103384.41;;;18.84;36.74
40998;BME280;26740;45.944;12.480;2023-02-13T09:59:57;103382.00;;;18.10;39.29
40998;BME280;26740;45.944;12.480;2023-02-13T10:06:03;103387.31;;;19.70;36.27
40998;BME280;26740;45.944;12.480;2023-02-13T10:08:33;103378.59;;;20.01;35.43
40998;BME280;26740;45.944;12.480;2023-02-13T10:11:29;103385.66;;;19.29;36.61
40998;BME280;26740;45.944;12.480;2023-02-13T10:16:35;103384.13;;;19.79;35.94
40998;BME280;26740;45.944;12.480;2023-02-13T10:21:51;103380.59;;;21.34;33.75
40998;BME280;26740;45.944;12.480;2023-02-13T10:24:36;103381.63;;;20.84;34.51
40998;BME280;26740;45.944;12.480;2023-02-13T10:27:29;103372.00;;;19.95;34.29
40998;BME280;26740;45.944;12.480;2023-02-13T10:29:57;103373.28;;;19.87;36.77
40998;BME280;26740;45.944;12.480;2023-02-13T10:35:26;103378.78;;;20.28;35.13
40998;BME280;26740;45.944;12.480;2023-02-13T10:37:56;103371.72;;;19.80;36.44
40998;BME280;26740;45.944;12.480;2023-02-13T10:40:31;103363.97;;;19.58;36.72
40998;BME280;26740;45.944;12.480;2023-02-13T10:43:07;103363.06;;;19.69;34.94
40998;BME280;26740;45.944;12.480;2023-02-13T10:56:26;103350.25;;;18.45;39.12
40998;BME280;26740;45.944;12.480;2023-02-13T11:04:33;103338.31;;;20.39;36.05
40998;BME280;26740;45.944;12.480;2023-02-13T11:07:02;103336.88;;;21.64;35.58
40998;BME280;26740;45.944;12.480;2023-02-13T11:09:32;103334.69;;;21.71;35.34
40998;BME280;26740;45.944;12.480;2023-02-13T11:12:28;103335.19;;;20.02;35.22
40998;BME280;26740;45.944;12.480;2023-02-13T11:15:05;103332.59;;;19.38;36.92
40998;BME280;26740;45.944;12.480;2023-02-13T11:17:34;103326.84;;;21.51;33.26
40998;BME280;26740;45.944;12.480;2023-02-13T11:20:04;103327.81;;;20.01;34.93
40998;BME280;26740;45.944;12.480;2023-02-13T11:22:34;103324.69;;;18.11;37.22
40998;BME280;26740;45.944;12.480;2023-02-13T11:25:06;103334.84;;;18.48;37.02
40998;BME280;26740;45.944;12.480;2023-02-13T11:27:41;103326.13;;;18.73;36.13
40998;BME280;26740;45.944;12.480;2023-02-13T11:30:33;103315.84;;;18.67;36.87
40998;BME280;26740;45.944;12.480;2023-02-13T11:33:02;103310.47;;;19.18;36.00
40998;BME280;26740;45.944;12.480;2023-02-13T11:35:34;103325.06;;;18.38;39.27
40998;BME280;26740;45.944;12.480;2023-02-13T11:38:27;103305.59;;;18.61;37.77
40998;BME280;26740;45.944;12.480;2023-02-13T11:41:05;103317.81;;;19.76;40.63
40998;BME280;26740;45.944;12.480;2023-02-13T11:43:52;103315.84;;;19.48;38.24
40998;BME280;26740;45.944;12.480;2023-02-13T11:46:21;103305.97;;;20.47;37.43
40998;BME280;26740;45.944;12.480;2023-02-13T11:49:04;103310.84;;;20.91;36.89
40998;BME280;26740;45.944;12.480;2023-02-13T11:54:05;103305.81;;;19.98;34.48
40998;BME280;26740;45.944;12.480;2023-02-13T11:56:55;103302.75;;;19.70;35.33
40998;BME280;26740;45.944;12.480;2023-02-13T11:59:22;103302.06;;;18.42;36.48
40998;BME280;26740;45.944;12.480;2023-02-13T12:02:11;103300.13;;;17.65;39.64
40998;BME280;26740;45.944;12.480;2023-02-13T12:04:38;103296.63;;;17.39;39.49
40998;BME280;26740;45.944;12.480;2023-02-13T12:07:12;103291.28;;;16.70;41.47
40998;BME280;26740;45.944;12.480;2023-02-13T12:09:39;103283.09;;;16.87;44.24
40998;BME280;26740;45.944;12.480;2023-02-13T12:12:06;103276.47;;;17.30;43.39
40998;BME280;26740;45.944;12.480;2023-02-13T12:14:39;103274.44;;;18.03;42.95
40998;BME280;26740;45.944;12.480;2023-02-13T12:17:13;103273.03;;;17.70;38.89
40998;BME280;26740;45.944;12.480;2023-02-13T12:19:47;103270.56;;;17.62;43.94
40998;BME280;26740;45.944;12.480;2023-02-13T12:22:29;103261.50;;;18.02;39.79
40998;BME280;26740;45.944;12.480;2023-02-13T12:25:19;103258.97;;;17.58;41.39
40998;BME280;26740;45.944;12.480;2023-02-13T12:28:11;103242.78;;;18.19;43.20
40998;BME280;26740;45.944;12.480;2023-02-13T12:36:23;103237.28;;;16.56;42.14
40998;BME280;26740;45.944;12.480;2023-02-13T12:39:15;103233.72;;;16.05;47.22
40998;BME280;26740;45.944;12.480;2023-02-13T12:50:11;103219.13;;;16.40;41.99
40998;BME280;26740;45.944;12.480;2023-02-13T12:52:50;103225.06;;;16.51;41.68
40998;BME280;26740;45.944;12.480;2023-02-13T12:55:36;103220.00;;;15.22;44.57
40998;BME280;26740;45.944;12.480;2023-02-13T13:07:01;103207.34;;;16.68;42.41
40998;BME280;26740;45.944;12.480;2023-02-13T13:09:40;103200.44;;;16.16;42.59
40998;BME280;26740;45.944;12.480;2023-02-13T13:12:29;103199.31;;;16.91;46.33
40998;BME280;26740;45.944;12.480;2023-02-13T13:23:43;103185.47;;;16.40;44.52
40998;BME280;26740;45.944;12.480;2023-02-13T13:26:26;103183.31;;;16.24;44.83
40998;BME280;26740;45.944;12.480;2023-02-13T13:29:00;103186.31;;;16.41;42.62
40998;BME280;26740;45.944;12.480;2023-02-13T13:31:29;103181.63;;;16.72;41.13
40998;BME280;26740;45.944;12.480;2023-02-13T13:34:00;103175.34;;;16.58;43.18
40998;BME280;26740;45.944;12.480;2023-02-13T13:36:35;103177.91;;;16.41;43.81
40998;BME280;26740;45.944;12.480;2023-02-13T13:47:44;103167.19;;;16.38;43.16
40998;BME280;26740;45.944;12.480;2023-02-13T14:03:57;103160.16;;;15.91;44.40
40998;BME280;26740;45.944;12.480;2023-02-13T14:09:06;103152.91;;;15.84;44.01
40998;BME280;26740;45.944;12.480;2023-02-13T14:11:52;103151.59;;;15.86;44.92
40998;BME280;26740;45.944;12.480;2023-02-13T14:16:57;103147.31;;;15.84;43.75
40998;BME280;26740;45.944;12.480;2023-02-13T14:19:33;103145.59;;;15.83;44.79
40998;BME280;26740;45.944;12.480;2023-02-13T14:22:35;103138.38;;;16.12;46.13
40998;BME280;26740;45.944;12.480;2023-02-13T14:25:21;103138.22;;;15.88;43.32
40998;BME280;26740;45.944;12.480;2023-02-13T14:28:02;103140.00;;;15.58;43.82
40998;BME280;26740;45.944;12.480;2023-02-13T14:30:37;103138.91;;;15.33;45.80
40998;BME280;26740;45.944;12.480;2023-02-13T14:33:24;103136.88;;;15.22;45.96
40998;BME280;26740;45.944;12.480;2023-02-13T14:36:05;103135.69;;;15.11;46.23
40998;BME280;26740;45.944;12.480;2023-02-13T14:38:32;103134.47;;;14.69;49.08
40998;BME280;26740;45.944;12.480;2023-02-13T14:40:58;103138.69;;;14.78;48.66
40998;BME280;26740;45.944;12.480;2023-02-13T14:43:57;103130.28;;;14.85;48.49
40998;BME280;26740;45.944;12.480;2023-02-13T14:46:36;103130.34;;;15.03;47.56
40998;BME280;26740;45.944;12.480;2023-02-13T14:49:16;103134.50;;;14.94;48.35
40998;BME280;26740;45.944;12.480;2023-02-13T14:51:47;103137.00;;;15.09;47.44
40998;BME280;26740;45.944;12.480;2023-02-13T14:59:54;103129.75;;;14.94;46.37
40998;BME280;26740;45.944;12.480;2023-02-13T15:02:31;103133.88;;;14.53;48.67
40998;BME280;26740;45.944;12.480;2023-02-13T15:05:04;103129.44;;;14.32;49.60
40998;BME280;26740;45.944;12.480;2023-02-13T15:07:37;103125.09;;;13.98;51.14
40998;BME280;26740;45.944;12.480;2023-02-13T15:13:01;103133.50;;;13.84;51.73
40998;BME280;26740;45.944;12.480;2023-02-13T15:15:30;103125.31;;;13.83;52.49
40998;BME280;26740;45.944;12.480;2023-02-13T15:18:02;103128.13;;;13.76;52.26
40998;BME280;26740;45.944;12.480;2023-02-13T15:20:33;103132.66;;;13.64;53.07
40998;BME280;26740;45.944;12.480;2023-02-13T15:23:01;103128.84;;;13.45;53.75
40998;BME280;26740;45.944;12.480;2023-02-13T15:25:35;103131.41;;;13.46;53.73
40998;BME280;26740;45.944;12.480;2023-02-13T15:28:06;103130.97;;;13.50;54.47
40998;BME280;26740;45.944;12.480;2023-02-13T15:30:34;103122.63;;;13.43;53.57
40998;BME280;26740;45.944;12.480;2023-02-13T15:33:18;103119.56;;;13.24;55.08
40998;BME280;26740;45.944;12.480;2023-02-13T15:35:44;103133.50;;;13.18;55.86